createdAt,value
2018-08-11T00:00:43.463Z,46.83
2018-08-11T00:01:43.460Z,47.14
2018-08-11T00:02:43.455Z,47.14
2018-08-11T00:03:43.454Z,47.21
2018-08-11T00:04:43.442Z,47.11
2018-08-11T00:05:43.437Z,47.21
2018-08-11T00:06:43.433Z,47.21
2018-08-11T00:07:43.427Z,47.21
2018-08-11T00:08:43.422Z,46.92
2018-08-11T00:09:43.415Z,47.41
2018-08-11T00:10:43.408Z,47.02
2018-08-11T00:11:43.404Z,47.50
2018-08-11T00:12:43.402Z,47.31
2018-08-11T00:13:43.392Z,47.50
2018-08-11T00:14:43.388Z,47.50
2018-08-11T00:15:43.384Z,47.43
2018-08-11T00:16:43.376Z,47.02
2018-08-11T00:17:43.374Z,47.31
2018-08-11T00:18:43.366Z,47.60
2018-08-11T00:19:43.361Z,47.41
2018-08-11T00:20:43.360Z,47.60
2018-08-11T00:21:43.363Z,47.41
2018-08-11T00:22:43.347Z,47.50
2018-08-11T00:23:43.338Z,47.69
2018-08-11T00:24:43.334Z,47.41
2018-08-11T00:25:43.327Z,47.60
2018-08-11T00:26:43.320Z,47.31
2018-08-11T00:27:43.316Z,47.41
2018-08-11T00:28:43.310Z,47.50
2018-08-11T00:29:43.307Z,47.50
2018-08-11T00:30:43.314Z,47.11
2018-08-11T00:31:43.296Z,47.50
2018-08-11T00:32:43.293Z,47.41
2018-08-11T00:33:43.286Z,47.60
2018-08-11T00:34:43.280Z,47.60
2018-08-11T00:35:43.274Z,47.60
2018-08-11T00:36:43.272Z,47.60
2018-08-11T00:37:43.263Z,47.91
2018-08-11T00:38:43.262Z,47.43
2018-08-11T00:39:43.252Z,47.24
2018-08-11T00:40:43.247Z,47.24
2018-08-11T00:41:43.245Z,47.43
2018-08-11T00:42:43.237Z,47.14
2018-08-11T00:43:43.230Z,47.43
2018-08-11T00:44:43.227Z,47.62
2018-08-11T00:45:43.224Z,47.43
2018-08-11T00:46:43.214Z,47.43
2018-08-11T00:47:43.212Z,47.62
2018-08-11T00:48:43.211Z,47.62
2018-08-11T00:49:43.199Z,47.43
2018-08-11T00:50:43.192Z,47.52
2018-08-11T00:51:43.189Z,47.43
2018-08-11T00:52:43.181Z,47.33
2018-08-11T00:53:43.179Z,47.43
2018-08-11T00:54:43.175Z,47.52
2018-08-11T00:55:43.166Z,47.52
2018-08-11T00:56:43.161Z,47.52
2018-08-11T00:57:43.157Z,47.43
2018-08-11T00:58:43.155Z,47.62
2018-08-11T00:59:43.147Z,47.52
2018-08-11T01:00:43.168Z,47.62
2018-08-11T01:01:43.135Z,47.52
2018-08-11T01:02:43.136Z,47.62
2018-08-11T01:03:43.134Z,47.52
2018-08-11T01:04:43.120Z,47.52
2018-08-11T01:05:43.111Z,47.52
2018-08-11T01:06:43.131Z,47.43
2018-08-11T01:07:43.116Z,47.52
2018-08-11T01:08:43.097Z,47.52
2018-08-11T01:09:43.092Z,47.52
2018-08-11T01:10:43.089Z,47.43
2018-08-11T01:11:43.082Z,47.52
2018-08-11T01:12:43.082Z,47.52
2018-08-11T01:13:43.074Z,47.52
2018-08-11T01:14:43.070Z,47.52
2018-08-11T01:15:43.062Z,47.52
2018-08-11T01:16:43.061Z,47.24
2018-08-11T01:17:43.049Z,47.52
2018-08-11T01:18:43.044Z,47.24
2018-08-11T01:19:43.040Z,47.62
2018-08-11T01:20:43.040Z,47.43
2018-08-11T01:21:43.034Z,47.52
2018-08-11T01:22:43.031Z,47.62
2018-08-11T01:23:43.020Z,47.52
2018-08-11T01:24:43.019Z,47.52
2018-08-11T01:25:43.008Z,47.33
2018-08-11T01:26:43.005Z,47.62
2018-08-11T01:27:43.006Z,47.62
2018-08-11T01:28:42.993Z,47.62
2018-08-11T01:29:42.989Z,47.33
2018-08-11T01:30:42.996Z,47.62
2018-08-11T01:31:42.978Z,47.43
2018-08-11T01:32:42.972Z,47.33
2018-08-11T01:33:42.967Z,47.52
2018-08-11T01:34:42.958Z,47.52
2018-08-11T01:35:42.957Z,47.62
2018-08-11T01:36:42.948Z,47.62
2018-08-11T01:37:42.946Z,47.72
2018-08-11T01:38:42.943Z,47.62
2018-08-11T01:39:42.936Z,47.52
2018-08-11T01:40:42.934Z,47.43
2018-08-11T01:41:42.925Z,47.43
2018-08-11T01:42:42.922Z,47.33
2018-08-11T01:43:42.914Z,47.43
2018-08-11T01:44:42.909Z,47.33
2018-08-11T01:45:42.903Z,47.11
2018-08-11T01:46:42.898Z,47.11
2018-08-11T01:47:42.898Z,47.50
2018-08-11T01:48:42.888Z,47.11
2018-08-11T01:49:42.887Z,47.11
2018-08-11T01:50:42.880Z,47.41
2018-08-11T01:51:42.876Z,47.31
2018-08-11T01:52:42.870Z,47.50
2018-08-11T01:53:42.861Z,47.31
2018-08-11T01:54:42.855Z,47.21
2018-08-11T01:55:42.856Z,47.41
2018-08-11T01:56:42.852Z,47.21
2018-08-11T01:57:42.853Z,47.11
2018-08-11T01:58:42.835Z,47.21
2018-08-11T01:59:42.832Z,47.11
2018-08-11T02:00:42.825Z,47.21
2018-08-11T02:01:42.820Z,47.02
2018-08-11T02:02:42.816Z,47.11
2018-08-11T02:03:42.818Z,47.21
2018-08-11T02:04:42.804Z,47.11
2018-08-11T02:05:42.801Z,47.21
2018-08-11T02:06:42.793Z,46.92
2018-08-11T02:07:42.792Z,46.73
2018-08-11T02:08:42.781Z,46.63
2018-08-11T02:09:42.779Z,47.02
2018-08-11T02:10:42.771Z,46.83
2018-08-11T02:11:42.767Z,47.21
2018-08-11T02:12:42.762Z,47.21
2018-08-11T02:13:42.756Z,46.73
2018-08-11T02:14:42.753Z,46.92
2018-08-11T02:15:42.745Z,47.21
2018-08-11T02:16:42.748Z,46.63
2018-08-11T02:17:42.733Z,46.92
2018-08-11T02:18:42.732Z,46.92
2018-08-11T02:19:42.732Z,46.83
2018-08-11T02:20:42.722Z,47.31
2018-08-11T02:21:42.717Z,46.73
2018-08-11T02:22:42.709Z,46.73
2018-08-11T02:23:42.706Z,46.66
2018-08-11T02:24:42.712Z,46.53
2018-08-11T02:25:42.699Z,46.53
2018-08-11T02:26:42.687Z,46.63
2018-08-11T02:27:42.682Z,46.66
2018-08-11T02:28:42.677Z,46.73
2018-08-11T02:29:42.670Z,46.75
2018-08-11T02:30:42.668Z,46.56
2018-08-11T02:31:42.665Z,46.53
2018-08-11T02:32:42.662Z,46.73
2018-08-11T02:33:42.650Z,46.83
2018-08-11T02:34:42.645Z,47.31
2018-08-11T02:35:42.639Z,47.11
2018-08-11T02:36:42.633Z,46.83
2018-08-11T02:37:42.628Z,46.83
2018-08-11T02:38:42.624Z,46.63
2018-08-11T02:39:42.619Z,46.92
2018-08-11T02:40:42.612Z,46.92
2018-08-11T02:41:42.616Z,47.11
2018-08-11T02:42:42.611Z,47.11
2018-08-11T02:43:42.595Z,46.73
2018-08-11T02:44:42.596Z,46.75
2018-08-11T02:45:42.588Z,46.53
2018-08-11T02:46:42.588Z,46.92
2018-08-11T02:47:42.578Z,46.83
2018-08-11T02:48:42.572Z,46.73
2018-08-11T02:49:42.569Z,46.83
2018-08-11T02:50:42.569Z,46.92
2018-08-11T02:51:42.556Z,46.92
2018-08-11T02:52:42.549Z,46.73
2018-08-11T02:53:42.544Z,46.63
2018-08-11T02:54:42.547Z,46.63
2018-08-11T02:55:42.545Z,46.63
2018-08-11T02:56:42.529Z,46.63
2018-08-11T02:57:42.524Z,46.83
2018-08-11T02:58:42.518Z,46.63
2018-08-11T02:59:42.518Z,46.92
2018-08-11T03:00:42.509Z,47.11
2018-08-11T03:01:42.502Z,46.53
2018-08-11T03:02:42.503Z,46.44
2018-08-11T03:03:42.491Z,46.73
2018-08-11T03:04:42.482Z,46.44
2018-08-11T03:05:42.510Z,47.11
2018-08-11T03:06:42.480Z,46.63
2018-08-11T03:07:42.486Z,46.53
2018-08-11T03:08:42.470Z,46.83
2018-08-11T03:09:42.460Z,46.83
2018-08-11T03:10:42.456Z,46.83
2018-08-11T03:11:42.450Z,47.11
2018-08-11T03:12:42.445Z,47.11
2018-08-11T03:13:42.440Z,46.92
2018-08-11T03:14:42.435Z,46.53
2018-08-11T03:15:42.427Z,46.63
2018-08-11T03:16:42.425Z,46.92
2018-08-11T03:17:42.434Z,46.83
2018-08-11T03:18:42.417Z,46.53
2018-08-11T03:19:42.412Z,46.73
2018-08-11T03:20:42.402Z,46.63
2018-08-11T03:21:42.401Z,46.83
2018-08-11T03:22:42.389Z,47.02
2018-08-11T03:23:42.385Z,46.53
2018-08-11T03:24:42.380Z,46.83
2018-08-11T03:25:42.379Z,46.83
2018-08-11T03:26:42.375Z,46.83
2018-08-11T03:27:42.366Z,46.92
2018-08-11T03:28:42.360Z,46.53
2018-08-11T03:29:42.356Z,46.83
2018-08-11T03:30:42.344Z,46.73
2018-08-11T03:31:42.348Z,46.92
2018-08-11T03:32:42.337Z,46.83
2018-08-11T03:33:42.331Z,46.83
2018-08-11T03:34:42.331Z,46.83
2018-08-11T03:35:42.323Z,46.83
2018-08-11T03:36:42.317Z,46.92
2018-08-11T03:37:42.311Z,46.73
2018-08-11T03:38:42.306Z,46.63
2018-08-11T03:39:42.304Z,46.83
2018-08-11T03:40:42.293Z,46.73
2018-08-11T03:41:42.293Z,46.83
2018-08-11T03:42:42.284Z,46.73
2018-08-11T03:43:42.289Z,46.53
2018-08-11T03:44:42.277Z,46.92
2018-08-11T03:45:42.268Z,46.63
2018-08-11T03:46:42.268Z,46.63
2018-08-11T03:47:42.258Z,46.83
2018-08-11T03:48:42.259Z,46.83
2018-08-11T03:49:42.248Z,46.92
2018-08-11T03:50:42.242Z,46.83
2018-08-11T03:51:42.238Z,46.92
2018-08-11T03:52:42.238Z,46.92
2018-08-11T03:53:42.225Z,46.63
2018-08-11T03:54:42.223Z,46.83
2018-08-11T03:55:42.235Z,46.83
2018-08-11T03:56:42.211Z,46.83
2018-08-11T03:57:42.205Z,46.83
2018-08-11T03:58:42.197Z,46.83
2018-08-11T03:59:42.198Z,46.92
2018-08-11T04:00:42.198Z,46.83
2018-08-11T04:01:42.190Z,46.73
2018-08-11T04:02:42.179Z,46.83
2018-08-11T04:03:42.173Z,46.63
2018-08-11T04:04:42.168Z,46.53
2018-08-11T04:05:42.164Z,46.73
2018-08-11T04:06:42.255Z,46.73
2018-08-11T04:07:42.150Z,46.70
2018-08-11T04:08:42.143Z,46.70
2018-08-11T04:09:42.141Z,46.61
2018-08-11T04:10:42.143Z,46.51
2018-08-11T04:11:42.128Z,46.42
2018-08-11T04:12:42.129Z,46.90
2018-08-11T04:13:42.120Z,47.19
2018-08-11T04:14:42.118Z,47.09
2018-08-11T04:15:42.110Z,47.09
2018-08-11T04:16:42.101Z,47.09
2018-08-11T04:17:42.106Z,47.09
2018-08-11T04:18:42.094Z,47.00
2018-08-11T04:19:42.094Z,47.00
2018-08-11T04:20:42.082Z,46.90
2018-08-11T04:21:42.076Z,46.90
2018-08-11T04:22:42.074Z,46.80
2018-08-11T04:23:42.066Z,46.61
2018-08-11T04:24:42.061Z,46.90
2018-08-11T04:25:42.055Z,46.61
2018-08-11T04:26:42.050Z,46.61
2018-08-11T04:27:42.044Z,46.51
2018-08-11T04:28:42.039Z,46.42
2018-08-11T04:29:42.035Z,46.61
2018-08-11T04:30:42.028Z,46.32
2018-08-11T04:31:42.023Z,46.22
2018-08-11T04:32:42.016Z,46.22
2018-08-11T04:33:42.012Z,46.32
2018-08-11T04:34:42.010Z,46.42
2018-08-11T04:35:42.050Z,46.30
2018-08-11T04:36:41.999Z,46.58
2018-08-11T04:37:41.990Z,46.58
2018-08-11T04:38:41.987Z,46.39
2018-08-11T04:39:41.977Z,46.39
2018-08-11T04:40:41.972Z,46.39
2018-08-11T04:41:41.968Z,46.39
2018-08-11T04:42:41.962Z,46.78
2018-08-11T04:43:41.957Z,46.39
2018-08-11T04:44:41.954Z,46.39
2018-08-11T04:45:41.953Z,46.49
2018-08-11T04:46:41.940Z,46.58
2018-08-11T04:47:41.935Z,46.39
2018-08-11T04:48:41.931Z,46.39
2018-08-11T04:49:41.920Z,46.68
2018-08-11T04:50:41.918Z,46.78
2018-08-11T04:51:41.921Z,46.58
2018-08-11T04:52:41.908Z,46.58
2018-08-11T04:53:41.906Z,46.68
2018-08-11T04:54:41.896Z,46.68
2018-08-11T04:55:41.893Z,46.58
2018-08-11T04:56:41.885Z,46.58
2018-08-11T04:57:41.878Z,46.78
2018-08-11T04:58:41.873Z,46.58
2018-08-11T04:59:41.866Z,46.58
2018-08-11T05:00:41.898Z,46.58
2018-08-11T05:01:41.859Z,46.30
2018-08-11T05:02:41.855Z,46.49
2018-08-11T05:03:41.845Z,46.68
2018-08-11T05:04:41.839Z,46.10
2018-08-11T05:05:41.836Z,46.10
2018-08-11T05:06:41.828Z,46.39
2018-08-11T05:07:41.821Z,46.58
2018-08-11T05:08:41.814Z,46.68
2018-08-11T05:09:41.815Z,46.68
2018-08-11T05:10:41.807Z,46.78
2018-08-11T05:11:41.800Z,46.58
2018-08-11T05:12:41.795Z,46.20
2018-08-11T05:13:41.827Z,46.49
2018-08-11T05:14:41.782Z,46.49
2018-08-11T05:15:41.775Z,46.58
2018-08-11T05:16:41.794Z,46.58
2018-08-11T05:17:41.777Z,46.61
2018-08-11T05:18:41.762Z,46.70
2018-08-11T05:19:41.765Z,46.61
2018-08-11T05:20:41.752Z,46.70
2018-08-11T05:21:41.744Z,46.61
2018-08-11T05:22:41.740Z,46.61
2018-08-11T05:23:41.728Z,46.70
2018-08-11T05:24:41.726Z,46.61
2018-08-11T05:25:41.721Z,46.80
2018-08-11T05:26:41.715Z,46.90
2018-08-11T05:27:41.714Z,46.61
2018-08-11T05:28:41.704Z,46.61
2018-08-11T05:29:41.699Z,46.70
2018-08-11T05:30:41.694Z,46.80
2018-08-11T05:31:41.688Z,46.61
2018-08-11T05:32:41.683Z,46.80
2018-08-11T05:33:41.677Z,46.68
2018-08-11T05:34:41.672Z,46.61
2018-08-11T05:35:41.666Z,46.58
2018-08-11T05:36:41.664Z,46.39
2018-08-11T05:37:41.657Z,46.61
2018-08-11T05:38:41.654Z,46.42
2018-08-11T05:39:41.639Z,46.61
2018-08-11T05:40:41.635Z,46.61
2018-08-11T05:41:41.705Z,46.61
2018-08-11T05:42:41.624Z,46.61
2018-08-11T05:43:41.621Z,46.70
2018-08-11T05:44:41.618Z,46.70
2018-08-11T05:45:41.627Z,46.70
2018-08-11T05:46:41.607Z,46.70
2018-08-11T05:47:41.600Z,46.32
2018-08-11T05:48:41.593Z,46.22
2018-08-11T05:49:41.589Z,46.51
2018-08-11T05:50:41.585Z,46.61
2018-08-11T05:51:41.579Z,46.61
2018-08-11T05:52:41.571Z,46.61
2018-08-11T05:53:41.572Z,46.70
2018-08-11T05:54:41.560Z,46.61
2018-08-11T05:55:41.555Z,46.70
2018-08-11T05:56:41.549Z,46.70
2018-08-11T05:57:41.539Z,46.51
2018-08-11T05:58:41.539Z,46.70
2018-08-11T05:59:41.531Z,46.61
2018-08-11T06:00:41.527Z,46.70
2018-08-11T06:01:41.521Z,46.70
2018-08-11T06:02:41.524Z,46.61
2018-08-11T06:03:41.514Z,46.70
2018-08-11T06:04:41.503Z,46.61
2018-08-11T06:05:41.500Z,46.70
2018-08-11T06:06:41.493Z,46.61
2018-08-11T06:07:41.488Z,46.61
2018-08-11T06:08:41.484Z,46.12
2018-08-11T06:09:41.477Z,46.63
2018-08-11T06:10:41.477Z,46.63
2018-08-11T06:11:41.467Z,46.83
2018-08-11T06:12:41.458Z,46.63
2018-08-11T06:13:41.461Z,46.73
2018-08-11T06:14:41.451Z,46.22
2018-08-11T06:15:41.447Z,46.53
2018-08-11T06:16:41.440Z,46.92
2018-08-11T06:17:41.433Z,46.51
2018-08-11T06:18:41.431Z,46.80
2018-08-11T06:19:41.427Z,46.90
2018-08-11T06:20:41.424Z,46.51
2018-08-11T06:21:41.411Z,47.09
2018-08-11T06:22:41.407Z,46.70
2018-08-11T06:23:41.401Z,47.00
2018-08-11T06:24:41.396Z,47.19
2018-08-11T06:25:41.390Z,47.11
2018-08-11T06:26:41.390Z,47.21
2018-08-11T06:27:41.384Z,46.83
2018-08-11T06:28:41.375Z,47.50
2018-08-11T06:29:41.371Z,47.11
2018-08-11T06:30:41.369Z,47.21
2018-08-11T06:31:41.422Z,47.41
2018-08-11T06:32:41.353Z,47.50
2018-08-11T06:33:41.351Z,47.50
2018-08-11T06:34:41.342Z,47.41
2018-08-11T06:35:41.336Z,47.41
2018-08-11T06:36:41.334Z,47.41
2018-08-11T06:37:41.322Z,47.50
2018-08-11T06:38:41.319Z,47.31
2018-08-11T06:39:41.315Z,47.21
2018-08-11T06:40:41.374Z,47.21
2018-08-11T06:41:41.300Z,46.83
2018-08-11T06:42:41.296Z,47.11
2018-08-11T06:43:41.296Z,46.73
2018-08-11T06:44:41.282Z,46.73
2018-08-11T06:45:41.279Z,46.83
2018-08-11T06:46:41.324Z,47.21
2018-08-11T06:47:41.269Z,46.92
2018-08-11T06:48:41.265Z,46.94
2018-08-11T06:49:41.249Z,46.75
2018-08-11T06:50:41.245Z,46.84
2018-08-11T06:51:41.239Z,46.66
2018-08-11T06:52:41.238Z,47.14
2018-08-11T06:53:41.229Z,46.66
2018-08-11T06:54:41.226Z,46.46
2018-08-11T06:55:41.256Z,46.46
2018-08-11T06:56:41.208Z,46.66
2018-08-11T06:57:41.202Z,46.56
2018-08-11T06:58:41.199Z,46.66
2018-08-11T06:59:41.227Z,46.77
2018-08-11T07:00:41.186Z,46.66
2018-08-11T07:01:41.178Z,46.77
2018-08-11T07:02:41.171Z,46.58
2018-08-11T07:03:41.166Z,46.48
2018-08-11T07:04:41.159Z,46.67
2018-08-11T07:05:41.151Z,46.48
2018-08-11T07:06:41.188Z,46.29
2018-08-11T07:07:41.146Z,46.67
2018-08-11T07:08:41.130Z,46.58
2018-08-11T07:09:41.126Z,46.48
2018-08-11T07:10:41.122Z,46.48
2018-08-11T07:11:41.113Z,46.48
2018-08-11T07:12:41.108Z,46.29
2018-08-11T07:13:41.100Z,46.58
2018-08-11T07:14:41.097Z,46.58
2018-08-11T07:15:41.100Z,46.48
2018-08-11T07:16:41.084Z,46.48
2018-08-11T07:17:41.106Z,46.77
2018-08-11T07:18:41.070Z,46.67
2018-08-11T07:19:41.066Z,46.77
2018-08-11T07:20:41.056Z,46.97
2018-08-11T07:21:41.054Z,47.06
2018-08-11T07:22:41.052Z,46.67
2018-08-11T07:23:41.037Z,46.58
2018-08-11T07:24:41.031Z,46.48
2018-08-11T07:25:41.028Z,46.77
2018-08-11T07:26:41.023Z,46.87
2018-08-11T07:27:41.013Z,46.87
2018-08-11T07:28:41.009Z,47.06
2018-08-11T07:29:41.001Z,46.87
2018-08-11T07:30:41.002Z,46.77
2018-08-11T07:31:40.987Z,46.89
2018-08-11T07:32:41.001Z,46.89
2018-08-11T07:33:40.975Z,46.60
2018-08-11T07:34:40.979Z,46.80
2018-08-11T07:35:40.963Z,46.70
2018-08-11T07:36:41.030Z,46.89
2018-08-11T07:37:40.981Z,46.80
2018-08-11T07:38:40.943Z,46.51
2018-08-11T07:39:40.939Z,46.51
2018-08-11T07:40:40.930Z,46.62
2018-08-11T07:41:40.925Z,46.53
2018-08-11T07:42:40.922Z,46.82
2018-08-11T07:43:40.912Z,46.72
2018-08-11T07:44:40.903Z,46.43
2018-08-11T07:45:40.902Z,46.31
2018-08-11T07:46:40.895Z,46.41
2018-08-11T07:47:40.905Z,46.43
2018-08-11T07:48:40.881Z,46.43
2018-08-11T07:49:40.877Z,46.72
2018-08-11T07:50:40.871Z,46.72
2018-08-11T07:51:40.861Z,46.72
2018-08-11T07:52:40.855Z,46.82
2018-08-11T07:53:40.859Z,46.53
2018-08-11T07:54:40.854Z,46.33
2018-08-11T07:55:40.841Z,46.33
2018-08-11T07:56:40.833Z,46.33
2018-08-11T07:57:40.829Z,46.62
2018-08-11T07:58:40.827Z,46.82
2018-08-11T07:59:40.816Z,46.72
2018-08-11T08:00:40.809Z,46.94
2018-08-11T08:01:40.809Z,46.94
2018-08-11T08:02:40.799Z,46.45
2018-08-11T08:03:40.805Z,46.16
2018-08-11T08:04:40.786Z,46.16
2018-08-11T08:05:40.778Z,46.45
2018-08-11T08:06:40.771Z,46.75
2018-08-11T08:07:40.768Z,46.84
2018-08-11T08:08:40.763Z,46.94
2018-08-11T08:09:40.759Z,46.75
2018-08-11T08:10:40.749Z,46.75
2018-08-11T08:11:40.745Z,46.84
2018-08-11T08:12:40.746Z,46.75
2018-08-11T08:13:40.760Z,46.65
2018-08-11T08:14:40.728Z,46.75
2018-08-11T08:15:40.722Z,46.55
2018-08-11T08:16:40.713Z,46.75
2018-08-11T08:17:40.712Z,46.65
2018-08-11T08:18:40.703Z,46.75
2018-08-11T08:19:40.702Z,46.16
2018-08-11T08:20:40.693Z,46.45
2018-08-11T08:21:40.692Z,46.36
2018-08-11T08:22:40.677Z,45.80
2018-08-11T08:23:40.678Z,45.89
2018-08-11T08:24:40.670Z,45.99
2018-08-11T08:25:40.665Z,45.89
2018-08-11T08:26:40.672Z,46.19
2018-08-11T08:27:40.653Z,46.09
2018-08-11T08:28:40.646Z,46.28
2018-08-11T08:29:40.641Z,46.19
2018-08-11T08:30:40.634Z,46.19
2018-08-11T08:31:40.638Z,46.09
2018-08-11T08:32:40.623Z,46.19
2018-08-11T08:33:40.627Z,46.28
2018-08-11T08:34:40.619Z,46.19
2018-08-11T08:35:40.608Z,46.01
2018-08-11T08:36:40.600Z,46.28
2018-08-11T08:37:40.594Z,46.11
2018-08-11T08:38:40.593Z,46.41
2018-08-11T08:39:40.586Z,46.31
2018-08-11T08:40:40.578Z,46.21
2018-08-11T08:41:40.573Z,46.11
2018-08-11T08:42:40.568Z,46.09
2018-08-11T08:43:40.569Z,46.01
2018-08-11T08:44:40.560Z,46.19
2018-08-11T08:45:40.557Z,45.99
2018-08-11T08:46:40.545Z,46.31
2018-08-11T08:47:40.544Z,46.21
2018-08-11T08:48:40.532Z,46.31
2018-08-11T08:49:40.529Z,46.31
2018-08-11T08:50:40.522Z,46.50
2018-08-11T08:51:40.522Z,45.92
2018-08-11T08:52:40.512Z,45.94
2018-08-11T08:53:40.510Z,46.04
2018-08-11T08:54:40.504Z,45.94
2018-08-11T08:55:40.496Z,45.26
2018-08-11T08:56:40.488Z,45.65
2018-08-11T08:57:40.486Z,45.45
2018-08-11T08:58:40.474Z,45.65
2018-08-11T08:59:40.475Z,45.55
2018-08-11T09:00:40.473Z,45.17
2018-08-11T09:01:40.463Z,45.65
2018-08-11T09:02:40.461Z,45.65
2018-08-11T09:03:40.453Z,45.45
2018-08-11T09:04:40.448Z,45.45
2018-08-11T09:05:40.443Z,45.55
2018-08-11T09:06:40.436Z,45.45
2018-08-11T09:07:40.432Z,45.55
2018-08-11T09:08:40.431Z,45.65
2018-08-11T09:09:40.420Z,45.36
2018-08-11T09:10:40.420Z,45.48
2018-08-11T09:11:40.408Z,45.18
2018-08-11T09:12:40.406Z,45.18
2018-08-11T09:13:40.394Z,45.28
2018-08-11T09:14:40.390Z,45.28
2018-08-11T09:15:40.387Z,44.89
2018-08-11T09:16:40.384Z,44.89
2018-08-11T09:17:40.381Z,45.09
2018-08-11T09:18:40.373Z,45.09
2018-08-11T09:19:40.369Z,45.21
2018-08-11T09:20:40.362Z,44.82
2018-08-11T09:21:40.360Z,44.24
2018-08-11T09:22:40.351Z,44.92
2018-08-11T09:23:40.348Z,44.62
2018-08-11T09:24:40.345Z,44.33
2018-08-11T09:25:40.341Z,44.33
2018-08-11T09:26:40.332Z,44.53
2018-08-11T09:27:40.333Z,44.53
2018-08-11T09:28:40.322Z,44.62
2018-08-11T09:29:40.319Z,44.24
2018-08-11T09:30:40.311Z,44.33
2018-08-11T09:31:40.307Z,44.33
2018-08-11T09:32:40.301Z,44.53
2018-08-11T09:33:40.298Z,44.92
2018-08-11T09:34:40.292Z,44.62
2018-08-11T09:35:40.288Z,45.01
2018-08-11T09:36:40.285Z,44.53
2018-08-11T09:37:40.275Z,44.53
2018-08-11T09:38:40.273Z,44.53
2018-08-11T09:39:40.266Z,44.33
2018-08-11T09:40:40.260Z,43.95
2018-08-11T09:41:40.256Z,44.24
2018-08-11T09:42:40.251Z,44.24
2018-08-11T09:43:40.248Z,44.04
2018-08-11T09:44:40.240Z,44.35
2018-08-11T09:45:40.329Z,44.26
2018-08-11T09:46:40.231Z,43.96
2018-08-11T09:47:40.245Z,44.06
2018-08-11T09:48:40.224Z,44.16
2018-08-11T09:49:40.217Z,43.48
2018-08-11T09:50:40.209Z,43.48
2018-08-11T09:51:40.206Z,44.16
2018-08-11T09:52:40.201Z,43.96
2018-08-11T09:53:40.195Z,43.58
2018-08-11T09:54:40.191Z,43.67
2018-08-11T09:55:40.198Z,44.26
2018-08-11T09:56:40.182Z,43.87
2018-08-11T09:57:40.175Z,43.96
2018-08-11T09:58:40.225Z,44.06
2018-08-11T09:59:40.169Z,43.38
2018-08-11T10:00:40.163Z,43.77
2018-08-11T10:01:40.161Z,43.67
2018-08-11T10:02:40.155Z,43.29
2018-08-11T10:03:40.153Z,43.29
2018-08-11T10:04:40.142Z,43.58
2018-08-11T10:05:40.139Z,43.60
2018-08-11T10:06:40.136Z,43.60
2018-08-11T10:07:40.121Z,43.11
2018-08-11T10:08:40.124Z,43.21
2018-08-11T10:09:40.119Z,43.11
2018-08-11T10:10:40.225Z,43.19
2018-08-11T10:11:40.111Z,43.21
2018-08-11T10:12:40.103Z,43.30
2018-08-11T10:13:40.111Z,43.30
2018-08-11T10:14:40.097Z,43.30
2018-08-11T10:15:40.098Z,43.40
2018-08-11T10:16:40.088Z,42.91
2018-08-11T10:17:40.084Z,43.30
2018-08-11T10:18:40.124Z,43.40
2018-08-11T10:19:40.074Z,43.21
2018-08-11T10:20:40.069Z,42.91
2018-08-11T10:21:40.068Z,43.11
2018-08-11T10:22:40.059Z,43.01
2018-08-11T10:23:40.058Z,43.11
2018-08-11T10:24:40.050Z,42.72
2018-08-11T10:25:40.048Z,42.63
2018-08-11T10:26:40.046Z,42.72
2018-08-11T10:27:40.040Z,42.72
2018-08-11T10:28:40.026Z,42.63
2018-08-11T10:29:40.027Z,42.72
2018-08-11T10:30:40.024Z,42.91
2018-08-11T10:31:40.019Z,42.91
2018-08-11T10:32:40.011Z,42.99
2018-08-11T10:33:40.008Z,42.90
2018-08-11T10:34:40.004Z,43.29
2018-08-11T10:35:40.002Z,43.38
2018-08-11T10:36:39.994Z,43.40
2018-08-11T10:37:39.991Z,43.50
2018-08-11T10:38:39.987Z,43.01
2018-08-11T10:39:39.998Z,42.82
2018-08-11T10:40:39.980Z,42.90
2018-08-11T10:41:39.973Z,43.01
2018-08-11T10:42:39.967Z,42.90
2018-08-11T10:43:39.965Z,43.01
2018-08-11T10:44:39.976Z,42.99
2018-08-11T10:45:39.956Z,43.01
2018-08-11T10:46:39.950Z,42.99
2018-08-11T10:47:39.947Z,43.40
2018-08-11T10:48:39.943Z,43.29
2018-08-11T10:49:39.938Z,43.29
2018-08-11T10:50:39.934Z,43.29
2018-08-11T10:51:39.924Z,43.29
2018-08-11T10:52:39.919Z,43.38
2018-08-11T10:53:39.915Z,43.58
2018-08-11T10:54:39.916Z,43.58
2018-08-11T10:55:39.908Z,43.38
2018-08-11T10:56:39.914Z,43.29
2018-08-11T10:57:39.899Z,43.38
2018-08-11T10:58:39.899Z,43.67
2018-08-11T10:59:39.893Z,43.67
2018-08-11T11:00:39.886Z,43.38
2018-08-11T11:01:39.880Z,43.67
2018-08-11T11:02:39.876Z,43.77
2018-08-11T11:03:39.882Z,43.38
2018-08-11T11:04:39.867Z,43.38
2018-08-11T11:05:39.859Z,43.19
2018-08-11T11:06:39.858Z,43.09
2018-08-11T11:07:39.854Z,42.99
2018-08-11T11:08:39.847Z,43.67
2018-08-11T11:09:39.847Z,43.19
2018-08-11T11:10:39.838Z,43.58
2018-08-11T11:11:39.832Z,43.67
2018-08-11T11:12:39.828Z,43.48
2018-08-11T11:13:39.958Z,43.58
2018-08-11T11:14:39.818Z,43.58
2018-08-11T11:15:39.823Z,43.58
2018-08-11T11:16:39.824Z,43.67
2018-08-11T11:17:39.804Z,43.48
2018-08-11T11:18:39.798Z,43.09
2018-08-11T11:19:39.796Z,43.29
2018-08-11T11:20:39.791Z,43.29
2018-08-11T11:21:39.810Z,43.38
2018-08-11T11:22:40.062Z,43.19
2018-08-11T11:23:39.781Z,43.67
2018-08-11T11:24:39.773Z,43.58
2018-08-11T11:25:39.768Z,43.67
2018-08-11T11:26:39.767Z,43.36
2018-08-11T11:27:39.760Z,43.36
2018-08-11T11:28:39.750Z,43.55
2018-08-11T11:29:39.751Z,43.55
2018-08-11T11:30:39.743Z,43.58
2018-08-11T11:31:39.740Z,43.55
2018-08-11T11:32:39.735Z,43.46
2018-08-11T11:33:39.730Z,43.46
2018-08-11T11:34:39.724Z,43.55
2018-08-11T11:35:39.721Z,43.46
2018-08-11T11:36:39.713Z,43.55
2018-08-11T11:37:39.712Z,43.55
2018-08-11T11:38:39.706Z,43.36
2018-08-11T11:39:39.705Z,43.55
2018-08-11T11:40:39.694Z,43.46
2018-08-11T11:41:39.688Z,43.55
2018-08-11T11:42:39.686Z,43.75
2018-08-11T11:43:39.687Z,43.55
2018-08-11T11:44:39.675Z,43.55
2018-08-11T11:45:39.670Z,43.46
2018-08-11T11:46:39.666Z,43.55
2018-08-11T11:47:39.693Z,43.65
2018-08-11T11:48:39.657Z,43.46
2018-08-11T11:49:39.658Z,43.55
2018-08-11T11:50:39.648Z,43.55
2018-08-11T11:51:39.676Z,43.46
2018-08-11T11:52:39.635Z,43.55
2018-08-11T11:53:39.644Z,43.48
2018-08-11T11:54:39.636Z,43.58
2018-08-11T11:55:39.656Z,43.58
2018-08-11T11:56:39.696Z,43.48
2018-08-11T11:57:39.618Z,43.48
2018-08-11T11:58:39.650Z,43.58
2018-08-11T11:59:39.682Z,43.38
2018-08-11T12:00:39.640Z,43.19
2018-08-11T12:01:39.656Z,43.29
2018-08-11T12:02:39.882Z,43.29
2018-08-11T12:03:39.795Z,43.29
2018-08-11T12:04:39.580Z,43.38
2018-08-11T12:05:39.789Z,43.38
2018-08-11T12:06:39.570Z,43.38
2018-08-11T12:07:39.566Z,43.38
2018-08-11T12:08:39.560Z,43.48
2018-08-11T12:09:39.554Z,43.58
2018-08-11T12:10:39.551Z,43.58
2018-08-11T12:11:39.547Z,43.48
2018-08-11T12:12:39.538Z,43.58
2018-08-11T12:13:39.540Z,43.55
2018-08-11T12:14:39.537Z,43.95
2018-08-11T12:15:39.538Z,44.14
2018-08-11T12:16:39.526Z,44.04
2018-08-11T12:17:39.527Z,44.14
2018-08-11T12:18:39.518Z,43.95
2018-08-11T12:19:39.511Z,44.04
2018-08-11T12:20:39.513Z,44.14
2018-08-11T12:21:39.499Z,44.24
2018-08-11T12:22:39.494Z,44.14
2018-08-11T12:23:39.490Z,44.14
2018-08-11T12:24:39.489Z,44.24
2018-08-11T12:25:39.488Z,44.33
2018-08-11T12:26:39.477Z,44.14
2018-08-11T12:27:39.471Z,43.95
2018-08-11T12:28:39.471Z,44.04
2018-08-11T12:29:39.464Z,43.95
2018-08-11T12:30:39.469Z,44.14
2018-08-11T12:31:39.455Z,44.04
2018-08-11T12:32:39.501Z,43.95
2018-08-11T12:33:39.444Z,43.75
2018-08-11T12:34:39.483Z,43.85
2018-08-11T12:35:39.440Z,44.43
2018-08-11T12:36:39.433Z,43.73
2018-08-11T12:37:39.422Z,43.85
2018-08-11T12:38:39.419Z,43.85
2018-08-11T12:39:39.415Z,43.75
2018-08-11T12:40:39.409Z,44.43
2018-08-11T12:41:39.404Z,43.75
2018-08-11T12:42:39.399Z,44.04
2018-08-11T12:43:39.393Z,43.95
2018-08-11T12:44:39.403Z,44.14
2018-08-11T12:45:39.434Z,44.14
2018-08-11T12:46:39.384Z,44.14
2018-08-11T12:47:39.372Z,43.85
2018-08-11T12:48:39.370Z,44.14
2018-08-11T12:49:39.364Z,43.75
2018-08-11T12:50:39.362Z,43.75
2018-08-11T12:51:39.354Z,44.14
2018-08-11T12:52:39.349Z,44.14